createdAt,value
2019-02-28T00:01:03.730Z,14.57
2019-02-28T00:03:34.243Z,15.73
2019-02-28T00:06:04.567Z,18.60
2019-02-28T00:08:35.047Z,17.60
2019-02-28T00:11:06.037Z,17.90
2019-02-28T00:13:36.644Z,16.80
2019-02-28T00:16:08.047Z,18.73
2019-02-28T00:18:38.462Z,18.80
2019-02-28T00:21:08.849Z,18.97
2019-02-28T00:23:39.298Z,20.07
2019-02-28T00:26:11.562Z,19.83
2019-02-28T00:28:41.842Z,19.77
2019-02-28T00:31:15.297Z,20.17
2019-02-28T00:33:44.814Z,21.60
2019-02-28T00:36:16.364Z,21.57
2019-02-28T00:38:47.239Z,21.17
2019-02-28T00:41:17.669Z,21.63
2019-02-28T00:43:48.228Z,23.23
2019-02-28T00:46:18.694Z,22.97
2019-02-28T00:48:52.946Z,24.47
2019-02-28T00:51:22.868Z,24.53
2019-02-28T00:53:53.205Z,25.83
2019-02-28T00:56:23.649Z,26.70
2019-02-28T00:58:54.044Z,26.03
2019-02-28T01:01:24.404Z,26.93
2019-02-28T01:03:58.060Z,26.47
2019-02-28T01:06:26.892Z,24.97
2019-02-28T01:08:57.308Z,27.30
2019-02-28T01:11:27.728Z,26.87
2019-02-28T01:14:01.258Z,27.20
2019-02-28T01:16:30.159Z,28.50
2019-02-28T01:19:00.484Z,30.03
2019-02-28T01:21:30.791Z,27.87
2019-02-28T01:24:01.804Z,28.27
2019-02-28T01:26:32.273Z,29.17
2019-02-28T01:29:02.782Z,29.73
2019-02-28T01:31:33.212Z,29.10
2019-02-28T01:34:03.728Z,29.33
2019-02-28T01:36:34.148Z,29.43
2019-02-28T01:39:07.013Z,31.00
2019-02-28T01:41:38.298Z,30.07
2019-02-28T01:44:08.554Z,30.27
2019-02-28T01:46:38.883Z,29.83
2019-02-28T01:49:09.218Z,31.60
2019-02-28T01:51:39.580Z,32.37
2019-02-28T01:54:10.129Z,32.00
2019-02-28T01:56:40.614Z,34.20
2019-02-28T01:59:11.279Z,33.07
2019-02-28T02:01:41.649Z,34.17
2019-02-28T02:04:12.589Z,35.20
2019-02-28T02:06:43.508Z,35.50
2019-02-28T02:09:13.879Z,36.30
2019-02-28T02:11:44.277Z,35.37
2019-02-28T02:14:14.679Z,35.97
2019-02-28T02:16:45.043Z,35.87
2019-02-28T02:19:18.536Z,35.83
2019-02-28T02:21:47.583Z,36.70
2019-02-28T02:24:18.030Z,38.40
2019-02-28T02:26:48.449Z,38.23
2019-02-28T02:29:25.936Z,36.03
2019-02-28T02:32:01.097Z,37.93
2019-02-28T02:34:29.623Z,39.10
2019-02-28T02:37:01.274Z,39.43
2019-02-28T02:39:31.810Z,37.37
2019-02-28T02:42:02.189Z,40.57
2019-02-28T02:44:33.713Z,41.37
2019-02-28T02:47:04.086Z,41.23
2019-02-28T02:49:34.498Z,41.20
2019-02-28T02:52:04.903Z,40.17
2019-02-28T02:54:35.374Z,39.67
2019-02-28T02:57:05.736Z,43.23
2019-02-28T02:59:38.987Z,41.20
2019-02-28T03:02:08.846Z,40.83
2019-02-28T03:04:39.474Z,42.77
2019-02-28T03:07:09.922Z,41.07
2019-02-28T03:09:43.445Z,43.80
2019-02-28T03:12:12.536Z,42.17
2019-02-28T03:14:42.845Z,43.67
2019-02-28T03:17:13.265Z,44.07
2019-02-28T03:19:44.556Z,42.10
2019-02-28T03:22:15.006Z,44.23
2019-02-28T03:24:50.648Z,43.07
2019-02-28T03:27:19.053Z,42.67
2019-02-28T03:29:49.643Z,40.33
2019-02-28T03:32:19.989Z,41.63
2019-02-28T03:34:58.104Z,42.77
2019-02-28T03:37:22.501Z,43.43
2019-02-28T03:39:52.833Z,43.57
2019-02-28T03:42:28.654Z,40.77
2019-02-28T03:44:57.082Z,43.90
2019-02-28T03:47:27.393Z,44.70
2019-02-28T03:49:57.815Z,42.07
2019-02-28T03:52:28.184Z,42.23
2019-02-28T03:55:03.283Z,43.53
2019-02-28T03:57:30.790Z,43.60
2019-02-28T04:00:01.269Z,43.87
2019-02-28T04:02:31.776Z,43.63
2019-02-28T04:05:03.029Z,43.73
2019-02-28T04:07:34.709Z,45.27
2019-02-28T04:10:05.981Z,43.43
2019-02-28T04:12:44.599Z,45.43
2019-02-28T04:15:11.316Z,44.13
2019-02-28T04:17:42.699Z,45.63
2019-02-28T04:20:13.255Z,46.17
2019-02-28T04:22:43.584Z,46.47
2019-02-28T04:25:14.043Z,46.53
2019-02-28T04:27:44.505Z,48.47
2019-02-28T04:30:15.009Z,46.60
2019-02-28T04:32:45.459Z,48.00
2019-02-28T04:35:15.852Z,49.63
2019-02-28T04:37:47.310Z,49.57
2019-02-28T04:40:17.950Z,47.90
2019-02-28T04:42:48.323Z,48.97
2019-02-28T04:45:18.824Z,51.13
2019-02-28T04:47:49.181Z,48.93
2019-02-28T04:50:19.483Z,53.40
2019-02-28T04:53:08.907Z,51.60
2019-02-28T04:55:39.415Z,49.80
2019-02-28T04:58:09.868Z,52.00
2019-02-28T05:00:40.290Z,49.00
2019-02-28T05:03:10.675Z,48.57
2019-02-28T05:05:41.284Z,48.27
2019-02-28T05:08:11.675Z,51.10
2019-02-28T05:10:42.061Z,53.23
2019-02-28T05:13:14.299Z,50.03
2019-02-28T05:15:44.463Z,54.20
2019-02-28T05:18:14.880Z,53.50
2019-02-28T05:20:46.055Z,53.17
2019-02-28T05:23:16.515Z,54.97
2019-02-28T05:25:49.132Z,55.73
2019-02-28T05:28:18.928Z,54.57
2019-02-28T05:30:50.253Z,57.03
2019-02-28T05:33:21.561Z,56.53
2019-02-28T05:35:52.054Z,55.43
2019-02-28T05:38:22.759Z,55.40
2019-02-28T05:40:55.433Z,57.23
2019-02-28T05:43:29.277Z,57.13
2019-02-28T05:45:59.941Z,59.33
2019-02-28T05:48:30.364Z,57.70
2019-02-28T05:51:00.705Z,59.80
2019-02-28T05:53:31.052Z,56.27
2019-02-28T05:56:01.597Z,53.67
2019-02-28T05:58:31.966Z,55.43
2019-02-28T06:01:02.562Z,71.80
2019-02-28T06:03:33.228Z,56.53
2019-02-28T06:06:03.729Z,56.70
2019-02-28T06:08:35.508Z,58.57
2019-02-28T06:11:06.186Z,57.47
2019-02-28T06:13:37.147Z,58.43
2019-02-28T06:16:11.048Z,57.23
2019-02-28T06:18:39.871Z,60.70
2019-02-28T06:21:10.451Z,60.17
2019-02-28T06:23:41.579Z,58.97
2019-02-28T06:26:12.079Z,59.67
2019-02-28T06:28:42.489Z,59.60
2019-02-28T06:31:14.532Z,59.60
2019-02-28T06:33:46.296Z,59.40
2019-02-28T06:36:16.729Z,59.97
2019-02-28T06:38:47.075Z,59.93
2019-02-28T06:41:17.819Z,58.63
2019-02-28T06:43:50.268Z,59.10
2019-02-28T06:46:20.340Z,61.57
2019-02-28T06:48:50.797Z,60.03
2019-02-28T06:51:21.360Z,60.37
2019-02-28T06:53:51.785Z,60.07
2019-02-28T06:56:23.121Z,59.53
2019-02-28T06:58:53.781Z,59.77
2019-02-28T07:01:24.282Z,61.67
2019-02-28T07:03:54.693Z,61.33
2019-02-28T07:06:25.189Z,61.93
2019-02-28T07:08:55.790Z,62.47
2019-02-28T07:11:26.766Z,58.50
2019-02-28T07:13:57.170Z,59.00
2019-02-28T07:16:30.739Z,62.17
2019-02-28T07:18:59.705Z,60.83
2019-02-28T07:21:30.220Z,62.07
2019-02-28T07:24:02.468Z,57.60
2019-02-28T07:26:32.890Z,59.53
2019-02-28T07:29:03.613Z,61.23
2019-02-28T07:31:34.146Z,59.77
2019-02-28T07:34:04.691Z,58.93
2019-02-28T07:36:35.084Z,58.23
2019-02-28T07:39:06.487Z,58.63
2019-02-28T07:41:36.944Z,59.47
2019-02-28T07:44:07.625Z,60.07
2019-02-28T07:46:38.786Z,57.03
2019-02-28T07:49:10.762Z,54.50
2019-02-28T07:51:41.455Z,57.67
2019-02-28T07:54:12.568Z,56.87
2019-02-28T07:56:44.371Z,56.30
2019-02-28T07:59:14.800Z,57.47
2019-02-28T08:01:45.480Z,56.70
2019-02-28T08:04:18.576Z,53.17
2019-02-28T08:06:48.060Z,58.03
2019-02-28T08:09:25.866Z,57.23
2019-02-28T08:11:56.781Z,57.70
2019-02-28T08:14:27.477Z,56.57
2019-02-28T08:16:57.948Z,57.30
2019-02-28T08:19:28.487Z,56.17
2019-02-28T08:21:59.226Z,59.23
2019-02-28T08:24:29.653Z,55.17
2019-02-28T08:27:00.011Z,55.53
2019-02-28T08:29:30.620Z,58.17
2019-02-28T08:32:06.735Z,55.43
2019-02-28T08:34:33.301Z,55.77
2019-02-28T08:37:03.792Z,54.97
2019-02-28T08:39:34.175Z,57.60
2019-02-28T08:42:04.949Z,54.30
2019-02-28T08:44:35.646Z,57.30
2019-02-28T08:47:06.367Z,55.40
2019-02-28T08:49:42.174Z,54.20
2019-02-28T08:52:09.422Z,57.17
2019-02-28T08:54:39.846Z,55.60
2019-02-28T08:57:10.482Z,58.20
2019-02-28T08:59:41.070Z,55.03
2019-02-28T09:02:14.522Z,58.63
2019-02-28T09:04:44.973Z,59.10
2019-02-28T09:07:16.078Z,57.83
2019-02-28T09:09:46.736Z,59.37
2019-02-28T09:12:17.486Z,58.67
2019-02-28T09:14:48.158Z,57.33
2019-02-28T09:17:19.382Z,58.23
2019-02-28T09:19:50.197Z,57.97
2019-02-28T09:22:20.555Z,59.13
2019-02-28T09:24:52.181Z,58.00
2019-02-28T09:27:22.746Z,63.27
2019-02-28T09:29:54.883Z,60.13
2019-02-28T09:32:25.598Z,61.97
2019-02-28T09:34:56.052Z,61.90
2019-02-28T09:37:29.544Z,60.63
2019-02-28T09:39:58.711Z,61.97
2019-02-28T09:42:29.265Z,59.57
2019-02-28T09:44:59.687Z,64.23
2019-02-28T09:47:30.376Z,59.27
2019-02-28T09:50:00.838Z,61.97
2019-02-28T09:52:31.390Z,61.50
2019-02-28T09:55:01.832Z,59.90
2019-02-28T09:57:32.226Z,60.20
2019-02-28T10:00:02.851Z,58.27
2019-02-28T10:02:35.158Z,58.63
2019-02-28T10:05:07.569Z,54.43
2019-02-28T10:07:38.016Z,57.77
2019-02-28T10:10:13.751Z,54.83
2019-02-28T10:12:44.292Z,52.73
2019-02-28T10:15:16.788Z,56.83
2019-02-28T10:17:47.944Z,58.67
2019-02-28T10:20:27.068Z,57.53
2019-02-28T10:22:56.070Z,58.70
2019-02-28T10:25:26.732Z,58.33
2019-02-28T10:28:01.390Z,56.33
2019-02-28T10:30:32.068Z,57.77
2019-02-28T10:33:02.284Z,58.47
2019-02-28T10:35:33.550Z,57.43
2019-02-28T10:38:05.246Z,58.40
2019-02-28T10:40:35.793Z,58.83
2019-02-28T10:43:06.547Z,59.97
2019-02-28T10:45:41.426Z,59.77
2019-02-28T10:48:10.478Z,59.80
2019-02-28T10:50:41.151Z,60.07
2019-02-28T10:53:11.992Z,57.70
2019-02-28T10:55:42.351Z,57.73
2019-02-28T10:58:15.531Z,58.33
2019-02-28T11:00:45.623Z,58.87
2019-02-28T11:03:16.742Z,58.37
2019-02-28T11:05:53.413Z,58.00
2019-02-28T11:08:19.922Z,59.70
2019-02-28T11:10:50.435Z,55.73
2019-02-28T11:13:21.039Z,57.27
2019-02-28T11:15:52.067Z,59.03
2019-02-28T11:18:22.506Z,56.70
2019-02-28T11:20:53.275Z,61.77
2019-02-28T11:23:24.032Z,59.37
2019-02-28T11:25:55.656Z,61.27
2019-02-28T11:28:28.397Z,59.93
2019-02-28T11:30:58.612Z,59.70
2019-02-28T11:33:29.520Z,64.03
2019-02-28T11:36:00.201Z,60.00
2019-02-28T11:38:30.652Z,60.93
2019-02-28T11:41:01.117Z,58.57
2019-02-28T11:43:37.380Z,60.73
2019-02-28T11:46:16.441Z,59.27
2019-02-28T11:48:46.791Z,59.47
2019-02-28T11:51:22.996Z,60.27
2019-02-28T11:53:53.421Z,60.40
2019-02-28T11:56:25.541Z,60.00
2019-02-28T11:58:55.709Z,58.53
2019-02-28T12:01:26.017Z,60.13
2019-02-28T12:03:56.286Z,57.53
2019-02-28T12:06:26.567Z,59.27
2019-02-28T12:08:56.953Z,59.60
2019-02-28T12:11:27.193Z,61.40
2019-02-28T12:13:57.481Z,58.60
2019-02-28T12:16:27.751Z,58.43
2019-02-28T12:18:58.048Z,61.97
2019-02-28T12:21:28.318Z,57.67
2019-02-28T12:24:00.568Z,60.70
2019-02-28T12:26:30.797Z,59.53
2019-02-28T12:29:01.109Z,59.43
2019-02-28T12:31:32.053Z,58.80
2019-02-28T12:34:03.558Z,57.37
2019-02-28T12:36:33.879Z,58.00
2019-02-28T12:39:05.374Z,57.27
2019-02-28T12:41:37.356Z,57.87
2019-02-28T12:44:07.881Z,58.93
2019-02-28T12:46:38.452Z,58.30
2019-02-28T12:49:08.753Z,58.03
2019-02-28T12:51:39.604Z,57.50
2019-02-28T12:54:10.606Z,55.40
2019-02-28T12:56:40.917Z,57.67
2019-02-28T12:59:11.193Z,58.03
2019-02-28T13:01:41.534Z,60.07
2019-02-28T13:04:11.842Z,57.30
2019-02-28T13:06:42.141Z,59.13
2019-02-28T13:09:13.628Z,57.47
2019-02-28T13:11:44.992Z,56.33
2019-02-28T13:14:15.225Z,58.83
2019-02-28T13:16:45.717Z,56.77
2019-02-28T13:19:16.374Z,57.77
2019-02-28T13:21:49.188Z,59.97
2019-02-28T13:24:19.474Z,60.37
2019-02-28T13:26:49.969Z,58.27
2019-02-28T13:29:22.228Z,56.33
2019-02-28T13:31:52.836Z,61.83
2019-02-28T13:34:25.192Z,60.63
2019-02-28T13:37:01.888Z,61.70
2019-02-28T13:39:31.762Z,59.50
2019-02-28T13:42:03.261Z,60.10
2019-02-28T13:44:36.384Z,63.27
2019-02-28T13:47:09.337Z,60.50
2019-02-28T13:49:38.448Z,62.27
2019-02-28T13:52:09.323Z,62.63
2019-02-28T13:54:42.105Z,61.73
2019-02-28T13:57:12.131Z,64.63
2019-02-28T13:59:42.625Z,61.07
2019-02-28T14:02:13.660Z,64.47
2019-02-28T14:04:44.218Z,61.77
2019-02-28T14:07:14.644Z,63.07
2019-02-28T14:09:45.257Z,59.93
2019-02-28T14:12:16.959Z,62.43
2019-02-28T14:14:47.957Z,59.67
2019-02-28T14:17:18.482Z,62.07
2019-02-28T14:19:48.918Z,59.93
2019-02-28T14:22:19.510Z,61.43
2019-02-28T14:24:50.151Z,62.97
2019-02-28T14:27:21.642Z,62.00
2019-02-28T14:29:52.593Z,62.10
2019-02-28T14:32:22.947Z,63.63
2019-02-28T14:34:53.508Z,61.73
2019-02-28T14:37:23.921Z,62.77
2019-02-28T14:39:54.449Z,63.03
2019-02-28T14:42:24.974Z,63.80
2019-02-28T14:44:55.382Z,63.03
2019-02-28T14:47:28.497Z,64.00
2019-02-28T14:49:57.971Z,62.17
2019-02-28T14:52:29.652Z,64.10
2019-02-28T14:55:00.219Z,62.83
2019-02-28T14:57:30.521Z,62.37
2019-02-28T15:00:06.203Z,60.97
2019-02-28T15:02:33.365Z,60.60
2019-02-28T15:05:04.069Z,58.07
2019-02-28T15:07:35.338Z,60.40
2019-02-28T15:10:09.103Z,61.17
2019-02-28T15:12:39.939Z,64.67
2019-02-28T15:15:18.063Z,59.87
2019-02-28T15:17:48.685Z,61.03
2019-02-28T15:20:20.627Z,63.37
2019-02-28T15:22:52.488Z,64.50
2019-02-28T15:25:23.738Z,61.27
2019-02-28T15:27:54.223Z,63.47
2019-02-28T15:30:27.090Z,63.63
2019-02-28T15:32:57.776Z,60.10
2019-02-28T15:35:28.467Z,63.53
2019-02-28T15:37:59.190Z,65.20
2019-02-28T15:40:32.099Z,62.63
2019-02-28T15:43:02.963Z,62.97
2019-02-28T15:45:39.232Z,63.53
2019-02-28T15:48:12.624Z,66.13
2019-02-28T15:50:58.503Z,65.33
2019-02-28T15:53:37.424Z,65.90
2019-02-28T15:56:13.237Z,60.80
2019-02-28T15:58:49.299Z,61.53
2019-02-28T16:01:32.359Z,62.03
2019-02-28T16:04:11.520Z,63.43
2019-02-28T16:06:47.146Z,63.73
2019-02-28T16:09:22.241Z,68.50
2019-02-28T16:12:01.928Z,64.17
2019-02-28T16:14:34.825Z,68.00
2019-02-28T16:17:06.348Z,69.73
2019-02-28T16:19:37.410Z,70.27
2019-02-28T16:22:07.934Z,69.50
2019-02-28T16:24:45.495Z,67.23
2019-02-28T16:27:17.722Z,71.03
2019-02-28T16:29:52.251Z,72.83
2019-02-28T16:32:23.720Z,69.67
2019-02-28T16:34:54.610Z,72.37
2019-02-28T16:37:25.385Z,71.53
2019-02-28T16:39:56.340Z,77.33
2019-02-28T16:42:26.835Z,73.33
2019-02-28T16:44:57.389Z,72.23
2019-02-28T16:47:27.991Z,76.63
2019-02-28T16:49:58.619Z,72.30
2019-02-28T16:52:31.245Z,72.13
2019-02-28T16:55:01.744Z,78.50
2019-02-28T16:57:32.915Z,75.03
2019-02-28T17:00:04.073Z,74.80
2019-02-28T17:02:42.603Z,72.40
2019-02-28T17:05:13.358Z,75.83
2019-02-28T17:07:44.507Z,77.40
2019-02-28T17:10:18.198Z,78.13
2019-02-28T17:13:02.900Z,76.57
2019-02-28T17:15:41.609Z,75.80
2019-02-28T17:18:18.429Z,76.40
2019-02-28T17:20:47.847Z,77.50
2019-02-28T17:23:19.259Z,81.07
2019-02-28T17:25:49.806Z,79.33
2019-02-28T17:28:37.894Z,76.03
2019-02-28T17:31:29.530Z,75.83
2019-02-28T17:33:59.949Z,75.53
2019-02-28T17:36:37.577Z,78.50
2019-02-28T17:39:17.281Z,75.07
2019-02-28T17:41:55.291Z,77.40
2019-02-28T17:44:52.371Z,80.57
2019-02-28T17:48:15.040Z,76.60
2019-02-28T17:51:14.991Z,80.17
2019-02-28T17:54:17.187Z,75.53
2019-02-28T17:57:16.474Z,78.33
2019-02-28T18:00:17.502Z,77.47
2019-02-28T18:03:27.976Z,79.67
2019-02-28T18:06:47.321Z,79.97
2019-02-28T18:09:34.816Z,81.07
2019-02-28T18:12:58.743Z,79.20
2019-02-28T18:15:49.562Z,77.90
2019-02-28T18:18:50.351Z,75.80
2019-02-28T18:21:52.363Z,72.43
2019-02-28T18:25:03.499Z,66.03
2019-02-28T18:28:30.974Z,59.20
2019-02-28T18:31:29.748Z,45.33
2019-02-28T18:34:07.095Z,37.53
2019-02-28T18:36:40.244Z,40.10
2019-02-28T18:39:15.861Z,42.70
2019-02-28T18:41:46.407Z,39.87
2019-02-28T18:44:16.913Z,38.13
2019-02-28T18:46:49.031Z,35.17
2019-02-28T18:49:19.487Z,34.40
2019-02-28T18:51:49.859Z,32.57
2019-02-28T18:54:20.340Z,33.13
2019-02-28T18:56:51.020Z,30.73
2019-02-28T18:59:21.517Z,35.07
2019-02-28T19:01:52.209Z,31.77
2019-02-28T19:04:22.803Z,30.50
2019-02-28T19:06:55.548Z,30.43
2019-02-28T19:09:26.252Z,29.20
2019-02-28T19:11:56.716Z,28.27
2019-02-28T19:14:27.166Z,27.33
2019-02-28T19:16:57.626Z,28.20
2019-02-28T19:19:28.169Z,28.13
2019-02-28T19:21:58.640Z,29.03
2019-02-28T19:24:29.198Z,29.63
2019-02-28T19:26:59.723Z,27.10
2019-02-28T19:29:30.211Z,27.10
2019-02-28T19:32:01.176Z,26.40
2019-02-28T19:34:31.810Z,27.43
2019-02-28T19:37:07.288Z,25.83
2019-02-28T19:39:37.870Z,26.27
2019-02-28T19:42:08.351Z,25.80
2019-02-28T19:44:39.124Z,24.90
2019-02-28T19:47:09.474Z,27.40
2019-02-28T19:49:39.800Z,25.53
2019-02-28T19:52:10.377Z,26.67
2019-02-28T19:54:40.839Z,27.40
2019-02-28T19:57:11.331Z,27.43
2019-02-28T19:59:42.710Z,27.83
2019-02-28T20:02:15.169Z,27.07
2019-02-28T20:04:45.546Z,27.53
2019-02-28T20:07:16.244Z,30.40
2019-02-28T20:09:46.766Z,26.27
2019-02-28T20:12:17.371Z,27.43
2019-02-28T20:14:47.756Z,26.87
2019-02-28T20:17:18.261Z,28.50
2019-02-28T20:19:48.680Z,30.37
2019-02-28T20:22:19.021Z,29.83
2019-02-28T20:24:49.473Z,31.00
2019-02-28T20:27:19.996Z,31.43
2019-02-28T20:29:55.044Z,32.40
2019-02-28T20:32:22.695Z,33.77
2019-02-28T20:34:53.330Z,35.37
2019-02-28T20:37:23.794Z,34.67
2019-02-28T20:39:54.185Z,36.23
2019-02-28T20:42:24.751Z,37.07
2019-02-28T20:44:55.337Z,38.57
2019-02-28T20:47:25.934Z,42.17
2019-02-28T20:49:57.002Z,39.53
2019-02-28T20:52:27.730Z,41.70
2019-02-28T20:54:58.350Z,43.23
2019-02-28T20:57:28.896Z,46.40
2019-02-28T20:59:59.436Z,59.00
2019-02-28T21:02:29.840Z,50.73
2019-02-28T21:05:00.334Z,53.50
2019-02-28T21:07:32.145Z,57.83
2019-02-28T21:10:05.157Z,57.37
2019-02-28T21:12:37.314Z,59.37
2019-02-28T21:15:11.013Z,61.30
2019-02-28T21:17:44.501Z,64.40
2019-02-28T21:20:14.946Z,64.87
2019-02-28T21:22:45.279Z,60.93
2019-02-28T21:25:17.355Z,56.87
2019-02-28T21:27:48.419Z,59.87
2019-02-28T21:30:20.826Z,58.07
2019-02-28T21:32:55.321Z,55.53
2019-02-28T21:35:26.462Z,57.57
2019-02-28T21:37:57.404Z,53.33
2019-02-28T21:40:28.204Z,54.90
2019-02-28T21:42:59.547Z,55.17
2019-02-28T21:45:30.264Z,52.07
2019-02-28T21:48:04.168Z,51.40
2019-02-28T21:50:34.821Z,51.17
2019-02-28T21:53:05.529Z,45.17
2019-02-28T21:55:36.143Z,41.43
2019-02-28T21:58:06.799Z,41.20
2019-02-28T22:00:38.101Z,38.90
2019-02-28T22:03:08.664Z,41.57
2019-02-28T22:05:39.165Z,41.10
2019-02-28T22:08:09.715Z,39.83
2019-02-28T22:10:40.204Z,39.63
2019-02-28T22:13:10.728Z,42.27
2019-02-28T22:15:41.617Z,41.13
2019-02-28T22:18:12.379Z,42.23
2019-02-28T22:20:43.007Z,45.30
2019-02-28T22:23:13.830Z,44.23
2019-02-28T22:25:44.376Z,45.80
2019-02-28T22:28:15.441Z,44.23
2019-02-28T22:31:04.845Z,45.37
2019-02-28T22:33:48.616Z,46.03
2019-02-28T22:36:23.876Z,46.80
2019-02-28T22:38:54.325Z,43.60
2019-02-28T22:41:24.996Z,41.47
2019-02-28T22:43:55.587Z,46.27
2019-02-28T22:46:26.024Z,46.63
2019-02-28T22:48:56.546Z,46.37
2019-02-28T22:51:27.058Z,46.57
2019-02-28T22:53:57.873Z,49.80
2019-02-28T22:56:28.494Z,50.07
2019-02-28T22:58:59.281Z,53.57
2019-02-28T23:01:31.462Z,52.27
2019-02-28T23:04:02.545Z,53.13
2019-02-28T23:06:32.817Z,54.00
2019-02-28T23:09:04.196Z,53.77
2019-02-28T23:11:36.226Z,54.30
2019-02-28T23:14:06.660Z,54.70
2019-02-28T23:16:36.951Z,53.23
2019-02-28T23:19:07.400Z,51.37
2019-02-28T23:21:37.811Z,51.33
2019-02-28T23:24:09.291Z,50.90
2019-02-28T23:27:09.181Z,51.37
2019-02-28T23:29:41.445Z,50.27
2019-02-28T23:32:41.254Z,51.67
2019-02-28T23:35:21.551Z,48.90
2019-02-28T23:37:52.273Z,46.83
2019-02-28T23:40:22.749Z,49.77
2019-02-28T23:42:53.209Z,46.50
2019-02-28T23:45:23.580Z,47.70
2019-02-28T23:47:53.942Z,46.73
2019-02-28T23:50:24.571Z,47.97
2019-02-28T23:52:55.087Z,46.23
2019-02-28T23:55:25.656Z,49.47
2019-02-28T23:57:56.047Z,45.70
